Time;durP1;ratioP1;P1;durP2;ratioP2;P2;SDS_P1;SDS_P2;PMS_P1;PMS_P2;Temp;Humidity;BMP_temperature;BMP_pressure;BME280_temperature;BME280_humidity;BME280_pressure;Samples;Min_cycle;Max_cycle;Signal;HPM_P1;HPM_P2
2021/01/18 03:45:52;;;;;;;10.07;7.13;;;2.50;99.90;;;;;;5712367;23;89238;-89
2021/01/18 03:48:17;;;;;;;11.75;8.48;;;2.50;99.90;;;;;;4950623;28;87467;-89
2021/01/18 03:50:43;;;;;;;13.63;6.95;;;2.60;99.90;;;;;;4948622;28;90144;-89
2021/01/18 03:53:10;;;;;;;13.30;7.75;;;2.50;99.90;;;;;;4955686;28;87628;-87
2021/01/18 03:55:36;;;;;;;13.85;8.20;;;2.50;99.90;;;;;;4967398;28;86184;-88
2021/01/18 03:58:03;;;;;;;347.83;31.02;;;2.40;99.90;;;;;;4950815;28;86810;-86
2021/01/18 04:00:30;;;;;;;14.02;7.47;;;2.40;99.90;;;;;;4947042;28;87530;-88
2021/01/18 04:02:57;;;;;;;14.57;7.93;;;2.40;99.90;;;;;;4948240;28;88166;-89
2021/01/18 04:05:24;;;;;;;12.90;7.57;;;2.40;99.90;;;;;;4966433;28;87002;-88
2021/01/18 04:07:50;;;;;;;8.57;6.55;;;2.40;99.90;;;;;;4960124;28;88013;-88
2021/01/18 04:10:18;;;;;;;8.30;6.38;;;2.40;99.90;;;;;;4965401;28;86743;-88
2021/01/18 04:12:46;;;;;;;11.75;6.53;;;2.40;99.90;;;;;;4953972;28;86864;-86
2021/01/18 04:15:13;;;;;;;9.65;6.85;;;2.30;99.90;;;;;;4947724;28;86810;-87
2021/01/18 04:17:44;;;;;;;8.88;6.15;;;2.30;99.90;;;;;;4956041;28;88974;-89
2021/01/18 04:20:11;;;;;;;11.23;6.80;;;2.40;99.90;;;;;;4966582;28;87446;-88
2021/01/18 04:22:42;;;;;;;14.30;6.68;;;2.40;99.90;;;;;;4953652;28;87082;-88
2021/01/18 04:25:09;;;;;;;11.35;6.70;;;2.40;99.90;;;;;;4960042;28;87075;-83
2021/01/18 04:27:34;;;;;;;14.70;7.13;;;2.40;99.90;;;;;;4969303;28;87721;-82
2021/01/18 04:30:00;;;;;;;9.90;6.80;;;2.50;99.90;;;;;;4968617;28;87318;-86
2021/01/18 04:32:26;;;;;;;11.52;6.43;;;2.50;99.90;;;;;;4967416;28;86884;-89
2021/01/18 04:34:51;;;;;;;13.40;6.38;;;2.50;99.90;;;;;;4956504;28;87723;-86
2021/01/18 04:37:17;;;;;;;10.95;7.45;;;2.50;99.90;;;;;;4960958;28;88629;-88
2021/01/18 04:39:45;;;;;;;13.38;7.13;;;2.50;99.90;;;;;;4953158;28;88799;-89
2021/01/18 04:42:11;;;;;;;12.60;7.10;;;2.40;99.90;;;;;;4958375;28;86883;-89
2021/01/18 04:44:47;;;;;;;9.98;6.65;;;2.40;99.90;;;;;;4970298;28;87904;-89
2021/01/18 04:47:14;;;;;;;12.82;6.90;;;;;;;;;;4956222;28;88830;-86
2021/01/18 04:49:42;;;;;;;11.45;7.35;;;2.30;99.90;;;;;;4947998;28;87017;-86
2021/01/18 04:52:17;;;;;;;12.50;5.90;;;2.40;99.90;;;;;;4959384;28;88065;-85
2021/01/18 04:54:53;;;;;;;11.00;7.55;;;2.40;99.90;;;;;;4977316;28;86749;-87
2021/01/18 04:57:26;;;;;;;11.70;6.22;;;2.30;99.90;;;;;;4969544;28;87864;-82
2021/01/18 05:00:00;;;;;;;12.93;7.65;;;2.20;99.90;;;;;;4976382;28;86767;-84
2021/01/18 05:02:40;;;;;;;14.43;7.15;;;2.30;99.90;;;;;;4965251;28;87017;-83
2021/01/18 05:05:21;;;;;;;14.35;6.95;;;2.30;99.90;;;;;;4964872;28;86246;-84
2021/01/18 05:08:05;;;;;;;11.48;5.65;;;2.30;99.90;;;;;;4953989;28;88234;-84
2021/01/18 05:10:31;;;;;;;10.85;6.22;;;2.40;99.90;;;;;;4966022;28;86166;-86
2021/01/18 05:13:00;;;;;;;10.50;6.38;;;2.50;99.90;;;;;;4967217;28;86921;-86
2021/01/18 05:15:26;;;;;;;14.77;6.97;;;2.50;99.90;;;;;;4971126;28;87006;-85
2021/01/18 05:17:59;;;;;;;12.45;7.00;;;2.50;99.90;;;;;;4964858;28;91585;-83
2021/01/18 05:20:25;;;;;;;11.93;6.85;;;2.40;99.90;;;;;;4975400;28;88374;-85
2021/01/18 05:22:52;;;;;;;10.43;7.82;;;2.40;99.90;;;;;;4967913;28;87047;-87
2021/01/18 05:25:19;;;;;;;13.18;6.85;;;2.30;99.90;;;;;;4966916;28;86358;-82
2021/01/18 05:28:01;;;;;;;13.10;7.28;;;2.30;99.90;;;;;;4977199;28;87676;-82
2021/01/18 05:30:42;;;;;;;16.23;7.03;;;2.30;99.90;;;;;;4973755;28;87496;-84
2021/01/18 05:33:07;;;;;;;16.10;7.47;;;2.30;99.90;;;;;;4956193;28;86873;-86
2021/01/18 05:35:36;;;;;;;11.65;6.88;;;2.40;99.90;;;;;;4966919;28;86267;-86
2021/01/18 05:38:10;;;;;;;14.95;7.28;;;2.40;99.90;;;;;;4956776;28;87216;-86
2021/01/18 05:40:51;;;;;;;13.90;6.90;;;2.40;99.90;;;;;;4960283;28;87502;-87
2021/01/18 05:43:18;;;;;;;10.38;6.75;;;2.40;99.90;;;;;;4964844;28;87865;-86
2021/01/18 05:45:46;;;;;;;11.27;6.05;;;2.40;99.90;;;;;;4963449;28;86921;-85
2021/01/18 05:48:13;;;;;;;13.05;6.25;;;2.50;99.90;;;;;;4968831;28;87330;-86
2021/01/18 05:50:40;;;;;;;16.80;6.90;;;2.60;99.90;;;;;;4960521;28;88249;-86
2021/01/18 05:53:31;;;;;;;14.48;5.78;;;2.60;99.90;;;;;;4961459;28;86502;-86
2021/01/18 05:56:15;;;;;;;14.30;7.75;;;2.70;99.90;;;;;;4951516;28;86682;-84
2021/01/18 05:58:41;;;;;;;16.05;7.72;;;;;;;;;;4956373;28;87683;-85
2021/01/18 06:01:06;;;;;;;14.35;7.45;;;2.60;99.90;;;;;;4964731;28;88447;-85
2021/01/18 06:03:32;;;;;;;12.27;7.18;;;2.60;99.90;;;;;;4959846;28;87059;-85
2021/01/18 06:05:59;;;;;;;24.95;6.80;;;2.60;99.90;;;;;;4966703;28;86882;-85
2021/01/18 06:08:26;;;;;;;21.92;6.93;;;2.60;99.90;;;;;;4959244;28;88187;-85
2021/01/18 06:10:54;;;;;;;15.98;6.25;;;2.60;99.90;;;;;;4962229;28;87967;-85
2021/01/18 06:13:34;;;;;;;18.98;6.78;;;2.50;99.90;;;;;;4963404;28;87111;-83
2021/01/18 06:16:03;;;;;;;12.85;6.10;;;2.50;99.90;;;;;;4962125;28;86722;-83
2021/01/18 06:18:36;;;;;;;14.10;7.40;;;2.50;99.90;;;;;;4961328;28;87289;-85
2021/01/18 06:21:07;;;;;;;9.85;4.50;;;2.50;99.90;;;;;;4950811;28;86952;-85
2021/01/18 06:23:33;;;;;;;14.50;6.60;;;2.60;99.90;;;;;;4969320;28;86308;-85
2021/01/18 06:25:59;;;;;;;11.15;5.85;;;2.60;99.90;;;;;;4964940;28;85485;-88
2021/01/18 06:28:29;;;;;;;10.32;4.28;;;2.60;99.90;;;;;;4962124;28;89134;-89
2021/01/18 06:31:12;;;;;;;9.10;5.50;;;2.70;99.90;;;;;;4966746;28;86933;-88
2021/01/18 06:33:46;;;;;;;9.23;4.88;;;2.70;99.90;;;;;;4967116;28;87714;-88
2021/01/18 06:36:14;;;;;;;5.93;4.80;;;2.60;99.90;;;;;;4958113;28;87153;-87
2021/01/18 06:38:42;;;;;;;13.68;5.57;;;2.70;99.90;;;;;;4965238;28;87463;-87
2021/01/18 06:41:09;;;;;;;11.00;5.00;;;2.60;99.90;;;;;;4963609;28;87393;-88
2021/01/18 06:43:36;;;;;;;11.88;5.70;;;2.60;99.90;;;;;;4965683;28;87024;-89
2021/01/18 06:46:24;;;;;;;9.93;4.43;;;2.60;99.90;;;;;;4961121;28;87122;-88
2021/01/18 06:48:51;;;;;;;9.45;4.70;;;2.60;99.90;;;;;;4962491;28;87672;-87
2021/01/18 06:51:22;;;;;;;8.93;4.70;;;2.70;99.90;;;;;;4971770;28;87112;-83
2021/01/18 06:53:50;;;;;;;6.50;4.20;;;2.60;99.90;;;;;;4974374;28;86884;-83
2021/01/18 06:56:37;;;;;;;4.93;4.03;;;2.70;99.90;;;;;;4985335;28;86797;-86
2021/01/18 06:59:09;;;;;;;4.63;4.05;;;2.70;99.90;;;;;;4978640;28;89884;-85
2021/01/18 07:01:39;;;;;;;11.23;4.22;;;2.70;99.90;;;;;;4987672;28;87825;-85
2021/01/18 07:04:17;;;;;;;6.37;4.20;;;2.70;99.90;;;;;;4975119;28;86197;-82
2021/01/18 07:06:44;;;;;;;4.72;3.97;;;2.80;99.90;;;;;;4986510;28;86116;-84
2021/01/18 07:09:10;;;;;;;5.25;4.13;;;2.80;99.90;;;;;;4958975;28;87163;-86
2021/01/18 07:11:37;;;;;;;6.18;4.53;;;2.80;99.90;;;;;;4948750;28;86974;-87
2021/01/18 07:14:05;;;;;;;6.13;4.13;;;2.90;99.90;;;;;;4953118;28;87075;-84
2021/01/18 07:16:32;;;;;;;6.97;4.05;;;2.90;99.90;;;;;;4967232;28;85467;-85
2021/01/18 07:19:00;;;;;;;7.45;4.47;;;2.80;99.90;;;;;;4952949;28;88858;-85
2021/01/18 07:22:04;;;;;;;5.22;4.55;;;2.80;99.90;;;;;;4952588;28;87072;-85
2021/01/18 07:24:33;;;;;;;6.82;4.70;;;2.80;99.90;;;;;;4947421;28;87687;-86
2021/01/18 07:27:04;;;;;;;6.50;4.57;;;2.80;99.90;;;;;;4977690;28;86744;-83
2021/01/18 07:29:32;;;;;;;8.38;5.15;;;2.90;99.90;;;;;;4986874;28;87644;-84
2021/01/18 07:31:59;;;;;;;5.97;4.43;;;2.90;99.90;;;;;;4983238;28;86833;-87
2021/01/18 07:34:27;;;;;;;7.90;4.60;;;2.80;99.90;;;;;;4967768;28;86068;-86
2021/01/18 07:37:14;;;;;;;5.25;3.78;;;2.80;99.90;;;;;;4972865;28;86239;-86
2021/01/18 07:39:41;;;;;;;7.78;4.40;;;2.90;99.90;;;;;;4974017;28;90570;-84
2021/01/18 07:42:31;;;;;;;6.57;4.40;;;2.90;99.90;;;;;;4958627;28;87040;-86
2021/01/18 07:45:12;;;;;;;4.45;3.03;;;3.00;99.90;;;;;;4954563;28;86711;-84
2021/01/18 07:47:57;;;;;;;5.63;4.82;;;3.00;99.90;;;;;;4969008;28;86921;-85
2021/01/18 07:50:38;;;;;;;8.85;4.03;;;3.10;99.90;;;;;;4957729;28;88205;-86
2021/01/18 07:53:13;;;;;;;6.57;4.18;;;3.20;99.90;;;;;;4967648;28;87225;-85
2021/01/18 07:55:39;;;;;;;5.97;3.75;;;3.20;99.90;;;;;;4967246;28;86830;-85
2021/01/18 07:58:18;;;;;;;4.38;3.97;;;3.20;99.90;;;;;;4963537;28;88165;-85
2021/01/18 08:00:45;;;;;;;5.05;3.95;;;3.30;99.90;;;;;;4960919;28;86936;-84
2021/01/18 08:03:10;;;;;;;4.78;3.60;;;3.40;99.90;;;;;;4957394;28;86904;-85
2021/01/18 08:05:41;;;;;;;5.57;4.25;;;3.40;99.90;;;;;;4960512;28;87534;-85
2021/01/18 08:08:15;;;;;;;6.33;4.27;;;3.40;99.90;;;;;;4962592;28;87258;-85
2021/01/18 08:10:58;;;;;;;6.72;4.43;;;3.50;99.90;;;;;;4968369;28;87202;-86
2021/01/18 08:13:31;;;;;;;5.72;4.85;;;3.50;99.90;;;;;;4951030;28;87791;-86
2021/01/18 08:16:13;;;;;;;6.57;5.20;;;3.40;99.90;;;;;;4958051;28;87503;-85
2021/01/18 08:18:59;;;;;;;7.90;4.28;;;3.40;99.90;;;;;;4970063;28;86871;-87
2021/01/18 08:21:33;;;;;;;4.97;4.47;;;3.40;99.90;;;;;;4962339;28;87786;-85
2021/01/18 08:24:23;;;;;;;4.55;4.03;;;3.50;99.90;;;;;;4972006;28;87348;-88
2021/01/18 08:27:05;;;;;;;9.55;4.93;;;3.50;99.90;;;;;;4971216;28;86986;-87
2021/01/18 08:29:43;;;;;;;6.10;4.53;;;3.60;99.90;;;;;;4958301;28;86913;-87
2021/01/18 08:32:33;;;;;;;8.15;3.20;;;3.60;99.90;;;;;;4959263;28;88257;-88
2021/01/18 08:35:17;;;;;;;6.53;5.20;;;3.70;99.90;;;;;;4956771;28;88887;-87
2021/01/18 08:37:51;;;;;;;5.88;5.10;;;3.80;99.90;;;;;;4964833;28;87120;-88
2021/01/18 08:40:19;;;;;;;9.82;4.22;;;3.90;99.90;;;;;;4972646;28;86764;-88
2021/01/18 08:42:53;;;;;;;7.40;4.53;;;3.90;99.90;;;;;;4968827;28;87909;-88
2021/01/18 08:45:30;;;;;;;7.75;4.90;;;4.10;99.90;;;;;;4959391;28;88325;-87
2021/01/18 08:47:58;;;;;;;5.63;3.47;;;4.00;99.90;;;;;;4970454;28;86958;-87
2021/01/18 08:50:29;;;;;;;7.97;3.00;;;4.10;99.90;;;;;;4969634;28;86867;-87
2021/01/18 08:52:56;;;;;;;;;;;4.10;99.90;;;;;;4970087;28;87190;-87
2021/01/18 08:55:41;;;;;;;5.65;4.00;;;4.10;99.90;;;;;;4978007;28;87090;-87
2021/01/18 08:58:07;;;;;;;6.22;4.15;;;4.20;99.90;;;;;;4961862;28;87040;-85
2021/01/18 09:00:48;;;;;;;7.43;4.10;;;4.20;99.90;;;;;;4967937;28;86377;-87
2021/01/18 09:03:19;;;;;;;6.88;4.85;;;4.20;99.90;;;;;;4963435;28;86896;-88
2021/01/18 09:05:46;;;;;;;5.25;3.78;;;4.30;99.90;;;;;;4969805;28;87928;-87
2021/01/18 09:08:14;;;;;;;6.65;4.47;;;4.30;99.90;;;;;;4969567;28;87759;-87
2021/01/18 09:10:40;;;;;;;7.20;4.95;;;4.30;99.90;;;;;;4964811;28;87191;-87
2021/01/18 09:13:07;;;;;;;4.15;3.70;;;4.40;99.90;;;;;;4956701;28;87725;-87
2021/01/18 09:15:35;;;;;;;5.63;3.95;;;4.50;99.90;;;;;;4965929;28;87383;-88
2021/01/18 09:18:10;;;;;;;5.25;4.25;;;4.50;99.90;;;;;;4952933;28;87017;-87
2021/01/18 09:20:40;;;;;;;6.13;4.38;;;4.50;99.90;;;;;;4966241;28;86917;-87
2021/01/18 09:23:07;;;;;;;4.85;4.00;;;4.50;99.90;;;;;;4968008;28;90347;-87
2021/01/18 09:25:35;;;;;;;5.53;4.03;;;4.60;99.90;;;;;;4951276;28;86845;-87
2021/01/18 09:28:19;;;;;;;4.35;3.75;;;4.60;99.90;;;;;;4932801;28;87362;-87
2021/01/18 09:30:44;;;;;;;5.65;4.03;;;4.70;99.90;;;;;;4963721;28;86929;-88
2021/01/18 09:33:11;;;;;;;5.30;4.00;;;4.80;99.90;;;;;;4948312;28;90415;-86
2021/01/18 09:35:42;;;;;;;6.07;4.30;;;5.00;99.90;;;;;;4958473;28;88899;-86
2021/01/18 09:38:10;;;;;;;4.80;4.30;;;5.00;99.90;;;;;;4965269;28;86530;-87
2021/01/18 09:40:41;;;;;;;5.88;3.72;;;5.10;99.90;;;;;;4957648;28;87260;-87
2021/01/18 09:43:08;;;;;;;7.10;4.05;;;5.10;99.90;;;;;;4951944;28;88652;-87
2021/01/18 09:45:35;;;;;;;4.70;4.15;;;5.10;99.90;;;;;;4954222;28;87492;-87
2021/01/18 09:48:06;;;;;;;6.53;4.28;;;5.20;99.90;;;;;;4964462;28;86253;-86
2021/01/18 09:50:33;;;;;;;5.28;3.95;;;5.30;99.90;;;;;;4962155;28;86005;-87
2021/01/18 09:53:03;;;;;;;3.25;3.03;;;5.30;99.90;;;;;;4969708;28;88560;-87
2021/01/18 09:55:36;;;;;;;3.60;3.30;;;5.30;99.90;;;;;;4965102;28;88965;-87
2021/01/18 09:58:18;;;;;;;4.35;3.38;;;5.30;99.90;;;;;;4961559;28;87929;-88
2021/01/18 10:00:45;;;;;;;;;;;5.30;99.90;;;;;;4969880;28;86981;-88
2021/01/18 10:03:12;;;;;;;3.75;3.00;;;5.40;99.90;;;;;;4971874;28;86961;-88
2021/01/18 10:05:42;;;;;;;4.10;3.20;;;5.50;99.90;;;;;;4961037;28;87105;-88
2021/01/18 10:08:12;;;;;;;3.78;3.47;;;5.60;99.90;;;;;;4969847;28;86796;-88
2021/01/18 10:10:49;;;;;;;3.50;3.17;;;5.60;99.90;;;;;;4966881;28;86896;-88
2021/01/18 10:13:26;;;;;;;4.03;3.63;;;5.50;98.00;;;;;;4967930;28;87275;-88
2021/01/18 10:15:53;;;;;;;3.95;3.55;;;5.60;98.50;;;;;;4959155;28;88585;-89
2021/01/18 10:18:44;;;;;;;7.50;3.30;;;5.60;99.90;;;;;;4950871;28;86492;-86
2021/01/18 10:21:11;;;;;;;3.33;3.00;;;5.80;99.90;;;;;;4964507;28;86596;-88
2021/01/18 10:23:40;;;;;;;4.05;3.63;;;5.80;99.90;;;;;;4955196;28;89204;-87
2021/01/18 10:26:25;;;;;;;2.90;2.63;;;5.60;96.70;;;;;;4961501;28;87731;-87
2021/01/18 10:28:53;;;;;;;4.10;3.33;;;5.70;95.20;;;;;;4963968;28;87018;-87
2021/01/18 10:31:24;;;;;;;4.63;3.53;;;5.80;96.40;;;;;;4970358;28;86177;-87
2021/01/18 10:34:21;;;;;;;4.85;3.67;;;5.90;93.40;;;;;;4964867;28;87215;-86
2021/01/18 10:36:49;;;;;;;4.40;3.10;;;5.90;92.70;;;;;;4969445;28;87164;-88
2021/01/18 10:39:29;;;;;;;3.42;3.13;;;6.00;93.00;;;;;;4968155;28;86703;-86
2021/01/18 10:42:10;;;;;;;3.90;3.00;;;6.10;94.10;;;;;;4965451;28;86499;-87
2021/01/18 10:44:38;;;;;;;4.20;3.05;;;6.20;93.70;;;;;;4964243;28;87069;-86
2021/01/18 10:47:04;;;;;;;5.13;4.15;;;6.30;94.30;;;;;;4968186;28;86917;-86
2021/01/18 10:49:34;;;;;;;4.57;3.83;;;6.40;93.10;;;;;;4954018;28;87802;-87
2021/01/18 10:52:10;;;;;;;7.30;4.38;;;6.50;93.40;;;;;;4960344;28;86443;-88
2021/01/18 10:54:36;;;;;;;5.45;3.80;;;6.60;92.30;;;;;;4964772;28;90750;-85
2021/01/18 10:57:19;;;;;;;3.95;3.45;;;6.70;91.90;;;;;;4966073;28;89926;-84
2021/01/18 11:00:28;;;;;;;3.92;3.35;;;6.80;91.80;;;;;;4969141;28;86132;-84
2021/01/18 11:02:55;;;;;;;4.35;3.45;;;6.90;90.80;;;;;;4969523;28;87042;-86
2021/01/18 11:05:31;;;;;;;6.22;3.20;;;6.90;92.20;;;;;;4973447;28;87010;-87
2021/01/18 11:08:00;;;;;;;4.03;3.72;;;7.00;92.20;;;;;;4958990;28;87570;-85
2021/01/18 11:10:26;;;;;;;4.80;4.35;;;7.00;88.00;;;;;;4970426;28;86184;-85
2021/01/18 11:13:18;;;;;;;4.63;3.63;;;7.10;90.40;;;;;;4975379;28;86831;-86
2021/01/18 11:15:45;;;;;;;8.00;5.28;;;7.10;91.00;;;;;;4968322;28;88624;-89
2021/01/18 11:18:12;;;;;;;7.30;6.10;;;7.10;92.00;;;;;;4953817;28;88167;-88
2021/01/18 11:20:45;;;;;;;10.05;7.60;;;7.00;91.40;;;;;;4954523;28;86298;-88
2021/01/18 11:23:11;;;;;;;10.32;6.85;;;6.80;92.00;;;;;;4959909;28;88008;-87
2021/01/18 11:25:38;;;;;;;7.25;5.60;;;6.70;93.70;;;;;;4959718;28;87686;-87
2021/01/18 11:28:11;;;;;;;10.80;6.70;;;6.60;92.90;;;;;;4954146;28;88819;-87
2021/01/18 11:30:40;;;;;;;9.07;6.47;;;6.50;94.30;;;;;;4957751;28;86772;-88
2021/01/18 11:33:09;;;;;;;8.25;6.70;;;6.30;95.50;;;;;;4968763;28;86124;-88
2021/01/18 11:35:37;;;;;;;8.95;5.53;;;6.40;96.20;;;;;;4959395;28;87205;-87
2021/01/18 11:38:03;;;;;;;7.97;5.55;;;6.50;94.80;;;;;;4965326;28;87035;-86
2021/01/18 11:40:29;;;;;;;6.03;4.88;;;6.60;95.40;;;;;;4958373;28;88011;-88
2021/01/18 11:42:58;;;;;;;6.15;5.43;;;6.60;92.80;;;;;;4960068;28;87087;-87
2021/01/18 11:45:24;;;;;;;5.05;4.57;;;6.30;92.50;;;;;;4965405;28;88645;-87
2021/01/18 11:47:50;;;;;;;4.47;3.45;;;6.30;92.70;;;;;;4960845;28;87351;-88
2021/01/18 11:50:16;;;;;;;5.05;4.60;;;6.10;90.50;;;;;;4964150;28;86565;-88
2021/01/18 11:52:51;;;;;;;6.15;4.85;;;6.00;91.40;;;;;;4964669;28;86879;-88
2021/01/18 11:55:18;;;;;;;4.60;4.20;;;5.70;90.50;;;;;;4958143;28;87120;-89
2021/01/18 11:57:47;;;;;;;6.00;4.13;;;5.70;90.80;;;;;;4961625;28;86751;-89
2021/01/18 12:00:27;;;;;;;4.50;3.60;;;5.60;93.80;;;;;;4951900;28;86896;-88
2021/01/18 12:02:57;;;;;;;4.50;3.55;;;5.60;93.60;;;;;;4960637;28;87030;-89
2021/01/18 12:05:25;;;;;;;4.80;4.32;;;5.50;96.30;;;;;;4956300;28;88661;-86
2021/01/18 12:07:55;;;;;;;5.53;3.85;;;5.70;96.00;;;;;;4962097;28;87090;-88
2021/01/18 12:10:22;;;;;;;4.57;4.18;;;5.90;95.10;;;;;;4959510;28;86938;-85
2021/01/18 12:12:49;;;;;;;6.40;4.25;;;5.90;96.10;;;;;;4955954;28;87255;-85
2021/01/18 12:15:16;;;;;;;5.38;4.13;;;6.00;95.20;;;;;;4962098;28;87396;-85
2021/01/18 12:17:43;;;;;;;5.07;4.30;;;6.00;95.10;;;;;;4966920;28;87139;-85
2021/01/18 12:20:12;;;;;;;8.57;5.13;;;5.90;93.90;;;;;;4958268;28;88353;-82
2021/01/18 12:22:38;;;;;;;5.45;3.90;;;5.80;93.40;;;;;;4955921;28;87147;-83
2021/01/18 12:25:04;;;;;;;6.40;4.43;;;5.70;95.40;;;;;;4956923;28;90183;-84
2021/01/18 12:27:30;;;;;;;7.35;4.93;;;5.90;95.80;;;;;;4967473;28;87304;-85
2021/01/18 12:29:56;;;;;;;7.30;5.15;;;5.80;94.50;;;;;;4964446;28;87850;-84
2021/01/18 12:32:22;;;;;;;6.47;5.13;;;5.80;94.50;;;;;;4956729;28;87142;-85
2021/01/18 12:34:48;;;;;;;7.47;4.95;;;5.90;96.10;;;;;;4960560;28;87046;-84
2021/01/18 12:37:13;;;;;;;7.43;5.25;;;5.90;94.30;;;;;;4953711;28;86932;-85
2021/01/18 12:39:39;;;;;;;7.85;4.72;;;5.80;96.40;;;;;;4960824;28;86822;-88
2021/01/18 12:42:06;;;;;;;8.18;4.68;;;6.00;97.40;;;;;;4957027;28;86861;-85
2021/01/18 12:44:32;;;;;;;7.80;5.03;;;6.10;97.30;;;;;;4946912;28;87591;-86
2021/01/18 12:46:59;;;;;;;6.70;4.65;;;6.20;96.90;;;;;;4960252;28;87381;-88
2021/01/18 12:49:25;;;;;;;7.43;5.38;;;6.30;97.70;;;;;;4955447;28;87066;-88
2021/01/18 12:51:51;;;;;;;8.70;5.57;;;6.40;97.70;;;;;;4968903;28;87140;-87
2021/01/18 12:54:17;;;;;;;8.80;5.28;;;6.40;95.30;;;;;;4967673;28;88195;-87
2021/01/18 12:56:44;;;;;;;10.05;5.85;;;6.40;95.70;;;;;;4964530;28;92831;-86
2021/01/18 12:59:14;;;;;;;10.13;6.97;;;6.30;95.50;;;;;;4963137;28;87131;-87
2021/01/18 13:01:39;;;;;;;15.65;8.95;;;6.30;97.50;;;;;;4951241;28;87110;-87
2021/01/18 13:04:08;;;;;;;16.60;10.13;;;6.40;97.60;;;;;;4960369;28;88429;-85
2021/01/18 13:06:38;;;;;;;11.27;7.28;;;6.30;96.20;;;;;;4967673;28;87092;-87
2021/01/18 13:09:12;;;;;;;34.88;18.13;;;6.20;96.00;;;;;;4961597;28;86438;-87
2021/01/18 13:11:40;;;;;;;30.95;16.55;;;6.20;95.70;;;;;;4968460;28;86020;-87
2021/01/18 13:14:07;;;;;;;19.50;12.65;;;6.10;95.80;;;;;;4963886;28;87629;-87
2021/01/18 13:16:33;;;;;;;10.77;8.18;;;6.20;96.20;;;;;;4964479;28;90232;-87
2021/01/18 13:18:59;;;;;;;12.38;7.85;;;6.00;95.50;;;;;;4964758;28;87871;-85
2021/01/18 13:21:25;;;;;;;10.63;6.78;;;5.90;94.50;;;;;;4964220;28;87115;-86
2021/01/18 13:23:51;;;;;;;45.15;21.15;;;5.80;95.30;;;;;;4948271;28;90389;-85
2021/01/18 13:26:19;;;;;;;10.25;6.70;;;5.70;96.10;;;;;;4949309;28;88040;-85
2021/01/18 13:28:47;;;;;;;14.55;9.55;;;5.60;96.70;;;;;;4951989;28;86771;-87
2021/01/18 13:31:14;;;;;;;44.60;25.50;;;5.70;96.50;;;;;;4959691;28;86978;-86
2021/01/18 13:33:46;;;;;;;12.95;7.65;;;5.70;97.30;;;;;;4954603;28;88180;-87
2021/01/18 13:36:38;;;;;;;17.02;10.57;;;5.60;96.70;;;;;;4959415;28;89762;-87
2021/01/18 13:39:06;;;;;;;12.80;8.52;;;5.60;97.70;;;;;;4957817;28;87180;-87
2021/01/18 13:41:32;;;;;;;7.25;5.45;;;5.60;96.90;;;;;;4958540;28;87101;-88
2021/01/18 13:43:57;;;;;;;10.43;8.20;;;5.60;97.20;;;;;;4963478;28;88712;-87
2021/01/18 13:46:25;;;;;;;11.75;8.60;;;5.70;98.30;;;;;;4948373;28;87879;-88
2021/01/18 13:48:52;;;;;;;15.82;10.43;;;5.80;98.10;;;;;;4922883;28;87067;-86
2021/01/18 13:51:25;;;;;;;17.23;12.55;;;5.90;98.10;;;;;;4920777;28;86869;-88
2021/01/18 13:53:53;;;;;;;15.82;12.23;;;6.00;98.40;;;;;;4927341;28;88993;-88
2021/01/18 13:56:21;;;;;;;10.57;9.02;;;6.00;98.40;;;;;;4946592;28;87501;-88
2021/01/18 13:58:54;;;;;;;9.35;7.32;;;6.00;98.50;;;;;;4922746;28;87174;-88
2021/01/18 14:01:28;;;;;;;10.75;7.75;;;6.10;99.00;;;;;;4925462;28;87823;-88
2021/01/18 14:03:56;;;;;;;8.90;6.38;;;6.20;99.10;;;;;;4945015;28;87713;-87
2021/01/18 14:06:23;;;;;;;7.82;5.38;;;6.30;99.20;;;;;;4947911;28;88022;-89
2021/01/18 14:08:49;;;;;;;6.63;5.40;;;6.50;98.50;;;;;;4947874;28;87445;-89
2021/01/18 14:11:14;;;;;;;9.00;5.20;;;6.50;98.90;;;;;;4951728;28;86993;-89
2021/01/18 14:13:40;;;;;;;7.38;5.50;;;6.50;99.00;;;;;;4941605;28;87639;-88
2021/01/18 14:16:06;;;;;;;7.13;5.40;;;6.60;98.90;;;;;;4942733;28;87765;-88
2021/01/18 14:18:31;;;;;;;9.77;6.53;;;6.60;98.70;;;;;;4918928;28;86535;-84
2021/01/18 14:20:57;;;;;;;10.73;7.38;;;6.50;98.60;;;;;;4945618;28;86620;-89
2021/01/18 14:23:23;;;;;;;13.48;8.75;;;6.50;96.60;;;;;;4951298;28;88279;-89
2021/01/18 14:25:48;;;;;;;10.70;6.60;;;6.40;97.40;;;;;;4942126;28;86394;-87
2021/01/18 14:28:14;;;;;;;12.25;7.68;;;6.30;98.40;;;;;;4944887;28;86870;-89
2021/01/18 14:30:41;;;;;;;12.50;8.88;;;6.20;99.40;;;;;;4942840;28;86237;-88
2021/01/18 14:33:07;;;;;;;12.88;8.13;;;6.30;99.60;;;;;;4948528;28;89206;-88
2021/01/18 14:35:34;;;;;;;16.42;9.00;;;6.30;99.30;;;;;;4950485;28;89791;-87
2021/01/18 14:38:00;;;;;;;19.33;11.38;;;6.30;99.10;;;;;;4943871;28;87021;-89
2021/01/18 14:40:26;;;;;;;15.82;9.88;;;6.20;99.30;;;;;;4938695;28;87016;-87
2021/01/18 14:42:51;;;;;;;14.38;9.00;;;6.20;99.20;;;;;;4937678;28;88915;-89
2021/01/18 14:45:17;;;;;;;15.63;9.20;;;6.20;98.90;;;;;;4946977;28;86890;-88
2021/01/18 14:47:43;;;;;;;14.05;9.23;;;6.20;99.40;;;;;;4968082;28;86496;-85
2021/01/18 14:50:11;;;;;;;14.82;9.05;;;6.10;99.60;;;;;;4960914;28;85925;-87
2021/01/18 14:52:38;;;;;;;12.63;8.93;;;6.00;99.80;;;;;;4960030;28;89016;-86
2021/01/18 14:55:06;;;;;;;13.18;9.00;;;5.90;99.90;;;;;;4959070;28;90284;-89
2021/01/18 14:57:35;;;;;;;13.35;8.32;;;5.70;99.90;;;;;;4963021;28;87975;-89
2021/01/18 15:00:05;;;;;;;11.15;7.80;;;5.60;99.90;;;;;;4967064;28;86688;-86
2021/01/18 15:02:30;;;;;;;11.80;7.72;;;5.50;99.90;;;;;;4965017;28;87675;-88
2021/01/18 15:04:56;;;;;;;12.63;8.00;;;5.30;99.90;;;;;;4967683;28;91627;-86
2021/01/18 15:07:22;;;;;;;15.98;8.43;;;5.30;99.90;;;;;;4962473;28;86656;-88
2021/01/18 15:09:48;;;;;;;16.08;8.48;;;5.10;99.90;;;;;;4963438;28;86799;-88
2021/01/18 15:12:15;;;;;;;12.90;7.82;;;5.00;99.90;;;;;;4955862;28;87475;-88
2021/01/18 15:14:41;;;;;;;12.48;8.18;;;4.80;99.90;;;;;;4965047;28;87425;-88
2021/01/18 15:17:07;;;;;;;11.88;7.85;;;4.80;99.90;;;;;;4980303;28;86180;-88
2021/01/18 15:19:33;;;;;;;15.82;8.98;;;4.80;99.90;;;;;;4979680;28;87412;-86
2021/01/18 15:22:00;;;;;;;12.88;8.75;;;4.80;99.90;;;;;;4971192;28;91151;-87
2021/01/18 15:24:26;;;;;;;11.65;8.25;;;4.80;99.90;;;;;;4965487;28;89419;-88
2021/01/18 15:26:52;;;;;;;12.02;8.25;;;4.80;99.90;;;;;;4955270;28;87102;-88
2021/01/18 15:29:18;;;;;;;11.43;6.80;;;4.60;99.90;;;;;;4969662;28;87148;-88
2021/01/18 15:31:52;;;;;;;8.18;5.72;;;4.50;99.90;;;;;;4956238;28;87274;-88
2021/01/18 15:34:18;;;;;;;41.72;18.45;;;4.40;99.90;;;;;;4956741;28;87000;-88
2021/01/18 15:36:48;;;;;;;11.10;6.45;;;4.30;99.90;;;;;;4955266;28;87065;-85
2021/01/18 15:39:16;;;;;;;6.45;4.68;;;4.20;99.90;;;;;;4958290;28;87655;-88
2021/01/18 15:41:42;;;;;;;6.05;3.53;;;4.10;99.90;;;;;;4961241;28;90755;-88
2021/01/18 15:44:08;;;;;;;3.40;3.10;;;4.00;99.90;;;;;;4966103;28;87312;-88
2021/01/18 15:46:34;;;;;;;4.18;3.80;;;4.00;99.90;;;;;;4963453;28;87689;-88
2021/01/18 15:49:00;;;;;;;7.63;5.13;;;3.80;99.90;;;;;;4959141;28;86913;-87
2021/01/18 15:51:25;;;;;;;5.80;3.17;;;3.80;99.90;;;;;;4955875;28;90232;-86
2021/01/18 15:53:51;;;;;;;4.65;3.63;;;3.70;99.90;;;;;;4960437;28;87234;-87
2021/01/18 15:56:36;;;;;;;3.55;3.17;;;3.60;99.90;;;;;;4963667;28;86806;-87
2021/01/18 15:59:03;;;;;;;4.50;4.10;;;3.60;99.90;;;;;;4950857;28;88710;-87
2021/01/18 16:01:29;;;;;;;6.32;3.67;;;3.70;99.90;;;;;;4956530;28;88084;-87
2021/01/18 16:03:55;;;;;;;6.93;3.47;;;3.60;99.90;;;;;;4951674;28;91390;-88
2021/01/18 16:06:21;;;;;;;4.50;3.53;;;3.60;99.90;;;;;;4960380;28;87149;-86
2021/01/18 16:08:48;;;;;;;5.05;3.75;;;3.60;99.90;;;;;;4957713;28;87113;-87
2021/01/18 16:11:28;;;;;;;4.93;3.63;;;3.60;99.90;;;;;;4950932;28;90465;-88
2021/01/18 16:13:54;;;;;;;4.53;3.50;;;3.40;99.90;;;;;;4952270;28;88382;-88
2021/01/18 16:16:20;;;;;;;3.35;3.05;;;3.40;99.90;;;;;;4955256;28;86984;-89
2021/01/18 16:18:47;;;;;;;5.45;3.00;;;3.40;99.90;;;;;;4963531;28;86843;-86
2021/01/18 16:21:13;;;;;;;3.83;3.38;;;3.40;99.90;;;;;;4956165;28;87630;-86
2021/01/18 16:23:39;;;;;;;5.72;3.55;;;3.30;99.90;;;;;;4950769;28;87362;-88
2021/01/18 16:26:05;;;;;;;4.47;3.60;;;3.30;99.90;;;;;;4962216;28;87051;-87
2021/01/18 16:28:32;;;;;;;4.45;3.40;;;3.40;99.90;;;;;;4969515;28;86058;-85
2021/01/18 16:30:57;;;;;;;4.05;3.55;;;3.40;99.90;;;;;;4956715;28;87548;-84
2021/01/18 16:33:23;;;;;;;6.55;3.78;;;3.40;99.90;;;;;;4962166;28;88904;-85
2021/01/18 16:35:49;;;;;;;10.00;4.63;;;3.40;99.90;;;;;;4970004;28;87719;-85
2021/01/18 16:38:16;;;;;;;12.32;5.93;;;3.30;99.90;;;;;;4961667;28;87045;-86
2021/01/18 16:40:45;;;;;;;9.40;3.97;;;3.40;99.90;;;;;;4958404;28;88311;-89
2021/01/18 16:43:10;;;;;;;7.38;4.80;;;3.40;99.90;;;;;;4968204;28;89096;-86
2021/01/18 16:45:36;;;;;;;5.80;4.30;;;3.40;99.90;;;;;;4961017;28;86693;-85
2021/01/18 16:48:03;;;;;;;6.80;3.92;;;3.40;99.90;;;;;;4959195;28;86909;-87
2021/01/18 16:50:29;;;;;;;6.75;3.38;;;3.50;99.90;;;;;;4961857;28;86712;-87
2021/01/18 16:52:55;;;;;;;4.60;4.20;;;3.50;99.90;;;;;;4963459;28;88458;-86